»·PEaware :: N3891R KCNO-KOXR

N3891R :: KCNO-KOXR

FLIGHT INFORMATION

Flight Status: Arrived
Operator: Privately registered:
United States
More flights under this callsign
Pilot: Markus B. (22479)
Aircraft: BEECH AIRCRAFT BARON
(BE58)
More flights by this aircraft type
Origin: KCNO Chino
United States
Destination: KOXR Oxnard
United States
More flights between these airports :: More routes between these airports
Route: PDZ V186 FIM
File this flight plan on PilotEdge
Remarks: ONTP14
Altitude:
(Current/Filed)
6,000ft
Speed:
(Current/Filed)
170kts
Departed: 08-Mar-20 02:32 PM
Arrived: 08-Mar-20 03:05 PM
Distance/Time
Traveled:
79nm/0:33
Distance/Time
To Go:
Arrived

Flight Plot

Page will automatically refresh every two minutes.


Map Options




Map Legend


Flown Route
Filed Route
Departure Airport
Arrival Airport
Navaid (VOR, NDB)
Fix

Horizontal Profiles

Position Reports

Time Latitude Longitude Heading Altitude Ground
Speed
08-Mar-20 14:21 33.978176 -117.637919 90 634ft 0kts
08-Mar-20 14:22 33.978176 -117.637919 90 634ft 0kts
08-Mar-20 14:23 33.978176 -117.637919 90 634ft 0kts
08-Mar-20 14:24 33.978176 -117.637919 90 634ft 0kts
08-Mar-20 14:25 33.978176 -117.637919 90 634ft 0kts
08-Mar-20 14:26 33.978176 -117.637919 90 634ft 0kts
08-Mar-20 14:27 33.976903 -117.636577 88 632ft 14kts
08-Mar-20 14:28 33.976815 -117.630880 145 637ft 11kts
08-Mar-20 14:29 33.976733 -117.630840 164 637ft 0kts
08-Mar-20 14:30 33.976733 -117.630840 164 637ft 0kts
08-Mar-20 14:31 33.975655 -117.645971 270 966ft 105kts
08-Mar-20 14:32 33.976104 -117.678493 270 2677ft 95kts
08-Mar-20 14:33 33.976573 -117.709572 270 4143ft 93kts
08-Mar-20 14:34 33.983579 -117.737808 305 5461ft 91kts
08-Mar-20 14:35 33.997286 -117.769867 292 6087ft 144kts
08-Mar-20 14:36 34.014458 -117.821282 291 6050ft 177kts
08-Mar-20 14:37 34.032880 -117.877405 291 5998ft 181kts
08-Mar-20 14:38 34.051351 -117.933793 291 6004ft 180kts
08-Mar-20 14:39 34.069872 -117.990430 291 5929ft 184kts
08-Mar-20 14:40 34.088409 -118.047231 291 5923ft 181kts
08-Mar-20 14:41 34.106849 -118.103775 291 5939ft 180kts
08-Mar-20 14:42 34.112192 -118.163530 272 5951ft 179kts
08-Mar-20 14:43 34.114166 -118.224270 272 5946ft 180kts
08-Mar-20 14:44 34.116157 -118.284888 272 5943ft 180kts
08-Mar-20 14:45 34.118163 -118.345597 272 5942ft 180kts
08-Mar-20 14:46 34.120176 -118.406165 272 5941ft 180kts
08-Mar-20 14:47 34.122205 -118.466847 272 5939ft 181kts
08-Mar-20 14:48 34.124557 -118.530248 278 4875ft 190kts
08-Mar-20 14:49 34.142104 -118.588770 293 4124ft 178kts
08-Mar-20 14:50 34.157664 -118.644316 293 3722ft 173kts
08-Mar-20 14:51 34.176132 -118.697194 292 3405ft 173kts
08-Mar-20 14:52 34.194144 -118.748724 292 3908ft 159kts
08-Mar-20 14:53 34.195191 -118.802934 263 4266ft 166kts
08-Mar-20 14:54 34.193795 -118.862234 275 3958ft 195kts
08-Mar-20 14:55 34.198600 -118.921609 274 3721ft 151kts
08-Mar-20 14:56 34.199813 -118.966263 268 3721ft 114kts
08-Mar-20 14:57 34.199188 -119.000244 268 3274ft 98kts
08-Mar-20 14:58 34.199066 -119.033561 270 2835ft 98kts
08-Mar-20 14:59 34.199604 -119.066725 271 2311ft 101kts
08-Mar-20 15:00 34.200152 -119.100477 270 1672ft 100kts
08-Mar-20 15:01 34.200236 -119.134385 269 1115ft 102kts
08-Mar-20 15:02 34.200535 -119.168739 271 590ft 101kts
08-Mar-20 15:03 34.200765 -119.201253 270 41ft 75kts
08-Mar-20 15:04 34.199683 -119.207839 272 37ft 0kts
08-Mar-20 15:05 34.199687 -119.208277 264 37ft 4kts
08-Mar-20 15:06 34.199760 -119.203350 86 40ft 21kts
08-Mar-20 15:07 34.198982 -119.199231 262 43ft 1kts
08-Mar-20 15:08 34.198984 -119.199303 277 43ft 0kts
08-Mar-20 15:09 34.198984 -119.199303 277 43ft 0kts
08-Mar-20 15:10 34.198984 -119.199303 277 43ft 0kts

Navigation Log

Ident Type
Flight plan parsing failed, navigation log unavailable